sensor_id;sensor_type;location;lat;lon;timestamp;pressure;altitude;pressure_sealevel;temperature;humidity
12868;BME280;33517;49.866;8.320;2023-08-07T00:01:08;100124.78;;;14.27;93.35
12868;BME280;33517;49.866;8.320;2023-08-07T00:04:00;100132.88;;;14.26;93.73
12868;BME280;33517;49.866;8.320;2023-08-07T00:06:53;100143.84;;;14.23;93.37
12868;BME280;33517;49.866;8.320;2023-08-07T00:09:45;100139.00;;;14.26;93.23
12868;BME280;33517;49.866;8.320;2023-08-07T00:12:37;100144.69;;;14.23;92.59
12868;BME280;33517;49.866;8.320;2023-08-07T00:15:29;100143.03;;;14.22;93.19
12868;BME280;33517;49.866;8.320;2023-08-07T00:18:21;100130.81;;;14.21;93.01
12868;BME280;33517;49.866;8.320;2023-08-07T00:21:13;100142.28;;;14.28;92.06
12868;BME280;33517;49.866;8.320;2023-08-07T00:24:06;100140.66;;;14.27;92.14
12868;BME280;33517;49.866;8.320;2023-08-07T00:26:58;100140.66;;;14.27;92.30
12868;BME280;33517;49.866;8.320;2023-08-07T00:29:49;100148.59;;;14.27;91.90
12868;BME280;33517;49.866;8.320;2023-08-07T00:32:41;100147.75;;;14.27;92.35
12868;BME280;33517;49.866;8.320;2023-08-07T00:35:33;100146.09;;;14.26;91.90
12868;BME280;33517;49.866;8.320;2023-08-07T00:38:25;100143.47;;;14.26;91.08
12868;BME280;33517;49.866;8.320;2023-08-07T00:41:18;100139.66;;;14.28;91.19
12868;BME280;33517;49.866;8.320;2023-08-07T00:44:10;100142.09;;;14.30;90.32
12868;BME280;33517;49.866;8.320;2023-08-07T00:47:02;100140.47;;;14.29;90.48
12868;BME280;33517;49.866;8.320;2023-08-07T00:49:55;100147.59;;;14.28;89.46
12868;BME280;33517;49.866;8.320;2023-08-07T00:52:47;100141.28;;;14.29;89.69
12868;BME280;33517;49.866;8.320;2023-08-07T00:55:40;100135.59;;;14.32;89.20
12868;BME280;33517;49.866;8.320;2023-08-07T00:58:33;100147.00;;;14.33;88.68
12868;BME280;33517;49.866;8.320;2023-08-07T01:01:25;100149.41;;;14.28;87.95
12868;BME280;33517;49.866;8.320;2023-08-07T01:04:17;100141.63;;;14.26;89.13
12868;BME280;33517;49.866;8.320;2023-08-07T01:07:09;100148.94;;;14.24;88.64
12868;BME280;33517;49.866;8.320;2023-08-07T01:10:01;100150.81;;;14.24;88.12
12868;BME280;33517;49.866;8.320;2023-08-07T01:13:00;100143.44;;;14.19;88.45
12868;BME280;33517;49.866;8.320;2023-08-07T01:16:01;100147.69;;;14.20;87.88
12868;BME280;33517;49.866;8.320;2023-08-07T01:19:00;100147.06;;;14.18;88.16
12868;BME280;33517;49.866;8.320;2023-08-07T01:22:05;100148.72;;;14.19;87.97
12868;BME280;33517;49.866;8.320;2023-08-07T01:24:57;100150.75;;;14.17;88.00
12868;BME280;33517;49.866;8.320;2023-08-07T01:27:53;100143.81;;;14.16;88.12
12868;BME280;33517;49.866;8.320;2023-08-07T01:30:50;100140.59;;;14.21;87.93
12868;BME280;33517;49.866;8.320;2023-08-07T01:33:48;100150.19;;;14.22;87.68
12868;BME280;33517;49.866;8.320;2023-08-07T01:36:42;100145.97;;;14.27;86.71
12868;BME280;33517;49.866;8.320;2023-08-07T01:39:37;100153.03;;;14.27;86.67
12868;BME280;33517;49.866;8.320;2023-08-07T01:42:29;100151.06;;;14.29;86.92
12868;BME280;33517;49.866;8.320;2023-08-07T01:45:23;100148.22;;;14.30;86.80
12868;BME280;33517;49.866;8.320;2023-08-07T01:48:15;100148.22;;;14.30;86.56
12868;BME280;33517;49.866;8.320;2023-08-07T01:51:07;100145.19;;;14.33;86.63
12868;BME280;33517;49.866;8.320;2023-08-07T01:53:59;100147.22;;;14.31;86.54
12868;BME280;33517;49.866;8.320;2023-08-07T01:56:52;100151.41;;;14.26;86.39
12868;BME280;33517;49.866;8.320;2023-08-07T01:59:44;100142.66;;;14.25;86.42
12868;BME280;33517;49.866;8.320;2023-08-07T02:02:36;100134.72;;;14.25;85.98
12868;BME280;33517;49.866;8.320;2023-08-07T02:05:28;100136.13;;;14.21;85.47
12868;BME280;33517;49.866;8.320;2023-08-07T02:08:20;100131.44;;;14.23;85.96
12868;BME280;33517;49.866;8.320;2023-08-07T02:11:12;100136.53;;;14.25;86.10
12868;BME280;33517;49.866;8.320;2023-08-07T02:14:05;100153.03;;;14.27;85.43
12868;BME280;33517;49.866;8.320;2023-08-07T02:16:57;100145.69;;;14.22;85.49
12868;BME280;33517;49.866;8.320;2023-08-07T02:19:49;100162.63;;;14.28;84.84
12868;BME280;33517;49.866;8.320;2023-08-07T02:22:40;100168.56;;;14.30;84.32
12868;BME280;33517;49.866;8.320;2023-08-07T02:25:32;100168.56;;;14.30;83.98
12868;BME280;33517;49.866;8.320;2023-08-07T02:28:24;100165.13;;;14.29;84.22
12868;BME280;33517;49.866;8.320;2023-08-07T02:31:17;100167.75;;;14.29;83.69
12868;BME280;33517;49.866;8.320;2023-08-07T02:34:09;100164.63;;;14.26;83.62
12868;BME280;33517;49.866;8.320;2023-08-07T02:37:01;100174.00;;;14.22;83.90
12868;BME280;33517;49.866;8.320;2023-08-07T02:39:53;100169.31;;;14.24;83.53
12868;BME280;33517;49.866;8.320;2023-08-07T02:42:45;100176.66;;;14.22;84.04
12868;BME280;33517;49.866;8.320;2023-08-07T02:45:36;100177.72;;;14.27;83.56
12868;BME280;33517;49.866;8.320;2023-08-07T02:48:30;100181.16;;;14.28;82.98
12868;BME280;33517;49.866;8.320;2023-08-07T02:51:21;100177.53;;;14.29;83.28
12868;BME280;33517;49.866;8.320;2023-08-07T02:54:13;100174.06;;;14.28;83.38
12868;BME280;33517;49.866;8.320;2023-08-07T02:57:05;100173.41;;;14.26;83.35
12868;BME280;33517;49.866;8.320;2023-08-07T02:59:57;100173.41;;;14.26;83.75
12868;BME280;33517;49.866;8.320;2023-08-07T03:02:49;100178.16;;;14.31;83.47
12868;BME280;33517;49.866;8.320;2023-08-07T03:05:48;100175.69;;;14.29;83.13
12868;BME280;33517;49.866;8.320;2023-08-07T03:08:41;100166.38;;;14.33;83.21
12868;BME280;33517;49.866;8.320;2023-08-07T03:11:33;100180.22;;;14.35;82.75
12868;BME280;33517;49.866;8.320;2023-08-07T03:14:25;100184.69;;;14.35;82.55
12868;BME280;33517;49.866;8.320;2023-08-07T03:17:17;100190.00;;;14.41;82.70
12868;BME280;33517;49.866;8.320;2023-08-07T03:20:11;100189.38;;;14.39;82.58
12868;BME280;33517;49.866;8.320;2023-08-07T03:23:05;100191.22;;;14.39;82.03
12868;BME280;33517;49.866;8.320;2023-08-07T03:26:03;100189.59;;;14.38;82.53
12868;BME280;33517;49.866;8.320;2023-08-07T03:28:55;100190.00;;;14.41;82.58
12868;BME280;33517;49.866;8.320;2023-08-07T03:31:47;100182.69;;;14.43;82.62
12868;BME280;33517;49.866;8.320;2023-08-07T03:34:39;100188.59;;;14.39;82.03
12868;BME280;33517;49.866;8.320;2023-08-07T03:37:31;100187.56;;;14.40;82.46
12868;BME280;33517;49.866;8.320;2023-08-07T03:40:24;100190.63;;;14.43;81.48
12868;BME280;33517;49.866;8.320;2023-08-07T03:43:16;100199.63;;;14.49;82.07
12868;BME280;33517;49.866;8.320;2023-08-07T03:46:08;100192.47;;;14.43;81.64
12868;BME280;33517;49.866;8.320;2023-08-07T03:49:00;100192.84;;;14.40;81.75
12868;BME280;33517;49.866;8.320;2023-08-07T03:51:51;100196.13;;;14.42;82.11
12868;BME280;33517;49.866;8.320;2023-08-07T03:54:43;100199.41;;;14.44;81.68
12868;BME280;33517;49.866;8.320;2023-08-07T03:57:36;100199.34;;;14.37;81.62
12868;BME280;33517;49.866;8.320;2023-08-07T04:00:28;100201.00;;;14.38;81.52
12868;BME280;33517;49.866;8.320;2023-08-07T04:03:20;100195.31;;;14.41;81.29
12868;BME280;33517;49.866;8.320;2023-08-07T04:06:12;100192.09;;;14.46;81.68
12868;BME280;33517;49.866;8.320;2023-08-07T04:09:06;100196.34;;;14.47;80.50
12868;BME280;33517;49.866;8.320;2023-08-07T04:11:58;100192.84;;;14.40;80.91
12868;BME280;33517;49.866;8.320;2023-08-07T04:14:51;100194.25;;;14.36;81.25
12868;BME280;33517;49.866;8.320;2023-08-07T04:17:43;100185.69;;;14.34;81.30
12868;BME280;33517;49.866;8.320;2023-08-07T04:20:37;100190.34;;;14.32;81.33
12868;BME280;33517;49.866;8.320;2023-08-07T04:23:28;100182.25;;;14.33;81.60
12868;BME280;33517;49.866;8.320;2023-08-07T04:26:22;100180.78;;;14.31;81.25
12868;BME280;33517;49.866;8.320;2023-08-07T04:29:13;100195.47;;;14.33;81.27
12868;BME280;33517;49.866;8.320;2023-08-07T04:32:07;100200.31;;;14.30;80.97
12868;BME280;33517;49.866;8.320;2023-08-07T04:34:59;100199.53;;;14.29;81.56
12868;BME280;33517;49.866;8.320;2023-08-07T04:37:51;100203.41;;;14.33;81.16
12868;BME280;33517;49.866;8.320;2023-08-07T04:40:46;100200.56;;;14.35;80.76
12868;BME280;33517;49.866;8.320;2023-08-07T04:43:38;100203.84;;;14.37;81.14
12868;BME280;33517;49.866;8.320;2023-08-07T04:46:30;100204.06;;;14.42;81.40
12868;BME280;33517;49.866;8.320;2023-08-07T04:49:25;100205.09;;;14.41;81.13
12868;BME280;33517;49.866;8.320;2023-08-07T04:52:16;100204.69;;;14.44;81.05
12868;BME280;33517;49.866;8.320;2023-08-07T04:55:08;100206.16;;;14.46;80.85
12868;BME280;33517;49.866;8.320;2023-08-07T04:58:00;100212.44;;;14.45;80.38
12868;BME280;33517;49.866;8.320;2023-08-07T05:00:54;100211.25;;;14.48;80.37
12868;BME280;33517;49.866;8.320;2023-08-07T05:03:46;100214.31;;;14.51;80.33
12868;BME280;33517;49.866;8.320;2023-08-07T05:06:39;100221.25;;;14.52;80.78
12868;BME280;33517;49.866;8.320;2023-08-07T05:09:31;100231.22;;;14.50;80.85
12868;BME280;33517;49.866;8.320;2023-08-07T05:12:23;100230.63;;;14.55;80.40
12868;BME280;33517;49.866;8.320;2023-08-07T05:15:15;100237.78;;;14.54;79.96
12868;BME280;33517;49.866;8.320;2023-08-07T05:18:07;100226.09;;;14.49;80.48
12868;BME280;33517;49.866;8.320;2023-08-07T05:20:59;100225.09;;;14.50;80.61
12868;BME280;33517;49.866;8.320;2023-08-07T05:23:52;100230.41;;;14.56;80.10
12868;BME280;33517;49.866;8.320;2023-08-07T05:26:45;100231.50;;;14.62;79.58
12868;BME280;33517;49.866;8.320;2023-08-07T05:29:37;100232.69;;;14.59;79.55
12868;BME280;33517;49.866;8.320;2023-08-07T05:32:34;100236.59;;;14.63;79.61
12868;BME280;33517;49.866;8.320;2023-08-07T05:35:28;100242.25;;;14.60;79.91
12868;BME280;33517;49.866;8.320;2023-08-07T05:38:19;100234.53;;;14.59;79.19
12868;BME280;33517;49.866;8.320;2023-08-07T05:41:12;100246.75;;;14.60;79.35
12868;BME280;33517;49.866;8.320;2023-08-07T05:44:04;100246.41;;;14.69;79.53
12868;BME280;33517;49.866;8.320;2023-08-07T05:46:57;100252.56;;;14.76;79.32
12868;BME280;33517;49.866;8.320;2023-08-07T05:49:48;100264.53;;;14.72;79.03
12868;BME280;33517;49.866;8.320;2023-08-07T05:52:40;100267.41;;;14.77;79.10
12868;BME280;33517;49.866;8.320;2023-08-07T05:55:32;100256.66;;;14.79;78.88
12868;BME280;33517;49.866;8.320;2023-08-07T05:58:26;100258.69;;;14.77;78.50
12868;BME280;33517;49.866;8.320;2023-08-07T06:01:17;100259.03;;;14.74;78.76
12868;BME280;33517;49.866;8.320;2023-08-07T06:04:09;100269.66;;;14.74;79.67
12868;BME280;33517;49.866;8.320;2023-08-07T06:07:01;100269.22;;;14.70;79.39
12868;BME280;33517;49.866;8.320;2023-08-07T06:09:53;100280.66;;;14.71;80.21
12868;BME280;33517;49.866;8.320;2023-08-07T06:12:45;100282.88;;;14.74;80.64
12868;BME280;33517;49.866;8.320;2023-08-07T06:15:38;100291.19;;;14.64;81.24
12868;BME280;33517;49.866;8.320;2023-08-07T06:18:30;100284.50;;;14.68;81.25
12868;BME280;33517;49.866;8.320;2023-08-07T06:21:22;100286.75;;;14.71;81.04
12868;BME280;33517;49.866;8.320;2023-08-07T06:24:13;100290.03;;;14.73;80.96
12868;BME280;33517;49.866;8.320;2023-08-07T06:27:05;100285.53;;;14.74;81.08
12868;BME280;33517;49.866;8.320;2023-08-07T06:29:57;100295.00;;;14.83;80.67
12868;BME280;33517;49.866;8.320;2023-08-07T06:32:51;100293.75;;;14.79;80.86
12868;BME280;33517;49.866;8.320;2023-08-07T06:35:43;100299.94;;;14.65;82.07
12868;BME280;33517;49.866;8.320;2023-08-07T06:38:35;100304.22;;;14.66;81.56
12868;BME280;33517;49.866;8.320;2023-08-07T06:41:27;100308.72;;;14.65;81.60
12868;BME280;33517;49.866;8.320;2023-08-07T06:44:18;100309.34;;;14.67;82.53
12868;BME280;33517;49.866;8.320;2023-08-07T06:47:10;100308.72;;;14.65;82.58
12868;BME280;33517;49.866;8.320;2023-08-07T06:50:04;100307.16;;;14.77;83.26
12868;BME280;33517;49.866;8.320;2023-08-07T06:52:56;100312.03;;;14.74;82.26
12868;BME280;33517;49.866;8.320;2023-08-07T06:55:48;100310.41;;;14.73;83.36
12868;BME280;33517;49.866;8.320;2023-08-07T06:58:39;100318.72;;;14.70;82.79
12868;BME280;33517;49.866;8.320;2023-08-07T07:01:31;100321.56;;;14.68;83.73
12868;BME280;33517;49.866;8.320;2023-08-07T07:04:23;100329.78;;;14.73;83.45
12868;BME280;33517;49.866;8.320;2023-08-07T07:07:16;100332.84;;;14.77;83.17
12868;BME280;33517;49.866;8.320;2023-08-07T07:10:09;100332.50;;;14.87;82.92
12868;BME280;33517;49.866;8.320;2023-08-07T07:13:01;100330.69;;;14.94;82.54
12868;BME280;33517;49.866;8.320;2023-08-07T07:15:53;100332.56;;;15.00;82.29
12868;BME280;33517;49.866;8.320;2023-08-07T07:18:45;100344.56;;;14.96;81.87
12868;BME280;33517;49.866;8.320;2023-08-07T07:21:37;100352.41;;;15.10;81.39
12868;BME280;33517;49.866;8.320;2023-08-07T07:24:30;100350.72;;;15.03;80.31
12868;BME280;33517;49.866;8.320;2023-08-07T07:27:22;100349.31;;;15.00;81.35
12868;BME280;33517;49.866;8.320;2023-08-07T07:30:16;100359.97;;;15.13;81.19
12868;BME280;33517;49.866;8.320;2023-08-07T07:33:08;100361.03;;;15.25;80.18
12868;BME280;33517;49.866;8.320;2023-08-07T07:36:00;100366.16;;;15.27;79.67
12868;BME280;33517;49.866;8.320;2023-08-07T07:38:52;100360.38;;;15.44;79.75
12868;BME280;33517;49.866;8.320;2023-08-07T07:41:45;100372.44;;;15.53;79.43
12868;BME280;33517;49.866;8.320;2023-08-07T07:44:37;100374.47;;;15.51;78.29
12868;BME280;33517;49.866;8.320;2023-08-07T07:47:30;100375.28;;;15.52;77.88
12868;BME280;33517;49.866;8.320;2023-08-07T07:50:22;100374.53;;;15.64;76.80
12868;BME280;33517;49.866;8.320;2023-08-07T07:53:14;100382.50;;;15.71;76.32
12868;BME280;33517;49.866;8.320;2023-08-07T07:56:05;100379.44;;;15.74;75.54
12868;BME280;33517;49.866;8.320;2023-08-07T07:58:59;100374.97;;;15.81;74.90
12868;BME280;33517;49.866;8.320;2023-08-07T08:01:51;100385.22;;;15.84;75.40
12868;BME280;33517;49.866;8.320;2023-08-07T08:04:42;100382.13;;;15.87;74.14
12868;BME280;33517;49.866;8.320;2023-08-07T08:07:34;100392.16;;;15.98;74.04
12868;BME280;33517;49.866;8.320;2023-08-07T08:10:26;100388.69;;;15.91;73.06
12868;BME280;33517;49.866;8.320;2023-08-07T08:13:18;100394.63;;;15.93;74.53
12868;BME280;33517;49.866;8.320;2023-08-07T08:16:12;100416.28;;;16.10;74.15
12868;BME280;33517;49.866;8.320;2023-08-07T08:19:03;100414.50;;;16.17;73.37
12868;BME280;33517;49.866;8.320;2023-08-07T08:21:55;100420.19;;;16.07;72.85
12868;BME280;33517;49.866;8.320;2023-08-07T08:24:47;100420.75;;;15.90;73.18
12868;BME280;33517;49.866;8.320;2023-08-07T08:27:39;100416.56;;;15.67;73.93
12868;BME280;33517;49.866;8.320;2023-08-07T08:30:31;100411.03;;;15.62;74.29
12868;BME280;33517;49.866;8.320;2023-08-07T08:33:24;100424.75;;;15.73;74.30
12868;BME280;33517;49.866;8.320;2023-08-07T08:36:16;100420.75;;;15.96;74.33
12868;BME280;33517;49.866;8.320;2023-08-07T08:39:08;100419.41;;;16.13;72.97
12868;BME280;33517;49.866;8.320;2023-08-07T08:42:00;100421.28;;;16.32;72.33
12868;BME280;33517;49.866;8.320;2023-08-07T08:44:53;100426.56;;;16.39;71.27
12868;BME280;33517;49.866;8.320;2023-08-07T08:47:46;100425.81;;;16.51;71.01
12868;BME280;33517;49.866;8.320;2023-08-07T08:50:42;100427.47;;;16.72;71.14
12868;BME280;33517;49.866;8.320;2023-08-07T08:53:35;100439.31;;;16.83;70.77
12868;BME280;33517;49.866;8.320;2023-08-07T08:56:28;100430.13;;;16.85;70.25
12868;BME280;33517;49.866;8.320;2023-08-07T08:59:20;100423.75;;;16.86;69.63
12868;BME280;33517;49.866;8.320;2023-08-07T09:02:12;100445.25;;;16.78;69.20
12868;BME280;33517;49.866;8.320;2023-08-07T09:05:05;100437.88;;;16.93;68.73
12868;BME280;33517;49.866;8.320;2023-08-07T09:07:59;100424.19;;;17.03;68.66
12868;BME280;33517;49.866;8.320;2023-08-07T09:10:52;100444.03;;;17.07;69.64
12868;BME280;33517;49.866;8.320;2023-08-07T09:13:44;100438.28;;;16.90;70.42
12868;BME280;33517;49.866;8.320;2023-08-07T09:16:39;100442.59;;;16.78;70.68
12868;BME280;33517;49.866;8.320;2023-08-07T09:19:31;100444.44;;;16.65;71.78
12868;BME280;33517;49.866;8.320;2023-08-07T09:22:23;100449.94;;;16.56;72.41
12868;BME280;33517;49.866;8.320;2023-08-07T09:25:26;100449.66;;;16.38;72.85
12868;BME280;33517;49.866;8.320;2023-08-07T09:28:19;100461.09;;;16.32;73.67
12868;BME280;33517;49.866;8.320;2023-08-07T09:31:14;100461.56;;;15.89;76.12
12868;BME280;33517;49.866;8.320;2023-08-07T09:34:06;100468.41;;;15.63;78.06
12868;BME280;33517;49.866;8.320;2023-08-07T09:36:58;100466.44;;;15.44;79.57
12868;BME280;33517;49.866;8.320;2023-08-07T09:39:51;100481.22;;;15.32;80.69
12868;BME280;33517;49.866;8.320;2023-08-07T09:42:44;100473.22;;;15.26;82.21
12868;BME280;33517;49.866;8.320;2023-08-07T09:45:39;100478.28;;;15.21;82.73
12868;BME280;33517;49.866;8.320;2023-08-07T09:48:31;100470.28;;;15.14;83.69
12868;BME280;33517;49.866;8.320;2023-08-07T09:51:24;100473.94;;;15.13;84.39
12868;BME280;33517;49.866;8.320;2023-08-07T09:54:16;100477.66;;;15.19;84.78
12868;BME280;33517;49.866;8.320;2023-08-07T09:57:08;100485.59;;;15.19;85.07
12868;BME280;33517;49.866;8.320;2023-08-07T10:00:02;100486.81;;;15.16;86.08
12868;BME280;33517;49.866;8.320;2023-08-07T10:02:54;100483.94;;;15.11;86.09
12868;BME280;33517;49.866;8.320;2023-08-07T10:05:46;100495.84;;;15.01;88.11
12868;BME280;33517;49.866;8.320;2023-08-07T10:08:39;100499.97;;;15.03;87.73
12868;BME280;33517;49.866;8.320;2023-08-07T10:11:33;100505.97;;;15.12;87.54
12868;BME280;33517;49.866;8.320;2023-08-07T10:14:25;100496.25;;;15.25;86.77
12868;BME280;33517;49.866;8.320;2023-08-07T10:17:21;100500.41;;;15.34;86.73
12868;BME280;33517;49.866;8.320;2023-08-07T10:20:13;100513.34;;;15.44;86.98
12868;BME280;33517;49.866;8.320;2023-08-07T10:23:07;100505.97;;;15.67;86.48
12868;BME280;33517;49.866;8.320;2023-08-07T10:26:00;100504.00;;;15.82;86.29
12868;BME280;33517;49.866;8.320;2023-08-07T10:28:54;100505.31;;;16.06;85.51
12868;BME280;33517;49.866;8.320;2023-08-07T10:31:47;100515.56;;;16.09;84.62
12868;BME280;33517;49.866;8.320;2023-08-07T10:34:46;100511.56;;;16.39;84.68
12868;BME280;33517;49.866;8.320;2023-08-07T10:37:40;100521.47;;;16.71;83.68
12868;BME280;33517;49.866;8.320;2023-08-07T10:40:32;100512.31;;;17.13;82.15
12868;BME280;33517;49.866;8.320;2023-08-07T10:43:24;100523.38;;;17.29;80.66
12868;BME280;33517;49.866;8.320;2023-08-07T10:46:20;100512.91;;;17.67;79.17
12868;BME280;33517;49.866;8.320;2023-08-07T10:49:30;100521.44;;;17.82;77.38
12868;BME280;33517;49.866;8.320;2023-08-07T10:52:24;100515.25;;;18.01;76.60
12868;BME280;33517;49.866;8.320;2023-08-07T10:55:16;100520.44;;;18.34;75.85
12868;BME280;33517;49.866;8.320;2023-08-07T10:58:21;100527.00;;;18.45;73.73
12868;BME280;33517;49.866;8.320;2023-08-07T11:01:21;100518.78;;;18.46;72.59
12868;BME280;33517;49.866;8.320;2023-08-07T11:04:14;100521.81;;;18.50;72.89
12868;BME280;33517;49.866;8.320;2023-08-07T11:07:06;100535.81;;;18.76;70.98
12868;BME280;33517;49.866;8.320;2023-08-07T11:10:00;100538.25;;;18.78;71.04
12868;BME280;33517;49.866;8.320;2023-08-07T11:12:52;100531.72;;;18.74;69.36
12868;BME280;33517;49.866;8.320;2023-08-07T11:15:45;100544.00;;;18.44;69.00
12868;BME280;33517;49.866;8.320;2023-08-07T11:18:37;100537.88;;;18.30;69.06
12868;BME280;33517;49.866;8.320;2023-08-07T11:21:32;100542.88;;;18.07;69.17
12868;BME280;33517;49.866;8.320;2023-08-07T11:24:26;100542.03;;;18.19;69.87
12868;BME280;33517;49.866;8.320;2023-08-07T11:27:22;100535.16;;;18.50;69.65
12868;BME280;33517;49.866;8.320;2023-08-07T11:30:13;100529.84;;;18.81;68.74
12868;BME280;33517;49.866;8.320;2023-08-07T11:33:05;100526.00;;;19.01;67.09
12868;BME280;33517;49.866;8.320;2023-08-07T11:35:57;100531.69;;;19.29;66.81
12868;BME280;33517;49.866;8.320;2023-08-07T11:38:49;100529.03;;;19.54;65.06
12868;BME280;33517;49.866;8.320;2023-08-07T11:41:41;100520.78;;;19.13;64.90
12868;BME280;33517;49.866;8.320;2023-08-07T11:44:36;100521.97;;;19.17;65.74
12868;BME280;33517;49.866;8.320;2023-08-07T11:47:27;100517.38;;;19.24;66.69
12868;BME280;33517;49.866;8.320;2023-08-07T11:50:19;100521.75;;;19.18;66.09
12868;BME280;33517;49.866;8.320;2023-08-07T11:53:12;100522.22;;;18.84;65.96
12868;BME280;33517;49.866;8.320;2023-08-07T11:56:06;100528.38;;;18.85;66.16
12868;BME280;33517;49.866;8.320;2023-08-07T11:58:58;100528.06;;;18.68;66.38
12868;BME280;33517;49.866;8.320;2023-08-07T12:01:51;100520.22;;;18.35;64.96
12868;BME280;33517;49.866;8.320;2023-08-07T12:04:43;100525.97;;;18.32;65.80
12868;BME280;33517;49.866;8.320;2023-08-07T12:07:35;100529.00;;;18.49;65.07
12868;BME280;33517;49.866;8.320;2023-08-07T12:10:27;100528.44;;;18.72;63.03
12868;BME280;33517;49.866;8.320;2023-08-07T12:13:24;100530.84;;;18.80;62.58
12868;BME280;33517;49.866;8.320;2023-08-07T12:16:17;100537.63;;;19.07;62.80
12868;BME280;33517;49.866;8.320;2023-08-07T12:19:10;100533.69;;;19.65;61.18
12868;BME280;33517;49.866;8.320;2023-08-07T12:22:06;100532.78;;;20.26;58.87
12868;BME280;33517;49.866;8.320;2023-08-07T12:24:58;100531.78;;;20.56;56.67
12868;BME280;33517;49.866;8.320;2023-08-07T12:27:50;100537.84;;;20.63;57.56
12868;BME280;33517;49.866;8.320;2023-08-07T12:30:44;100529.19;;;20.79;56.63
12868;BME280;33517;49.866;8.320;2023-08-07T12:33:37;100528.63;;;20.48;55.77
12868;BME280;33517;49.866;8.320;2023-08-07T12:36:30;100534.41;;;20.45;57.22
12868;BME280;33517;49.866;8.320;2023-08-07T12:39:21;100539.69;;;19.97;56.73
12868;BME280;33517;49.866;8.320;2023-08-07T12:42:13;100536.78;;;19.98;57.42
12868;BME280;33517;49.866;8.320;2023-08-07T12:45:06;100540.00;;;20.07;57.53
12868;BME280;33517;49.866;8.320;2023-08-07T12:47:58;100539.19;;;20.25;57.17
12868;BME280;33517;49.866;8.320;2023-08-07T12:50:50;100531.97;;;20.25;54.79
12868;BME280;33517;49.866;8.320;2023-08-07T12:53:43;100530.00;;;20.50;55.83
12868;BME280;33517;49.866;8.320;2023-08-07T12:56:35;100534.06;;;20.82;54.22
12868;BME280;33517;49.866;8.320;2023-08-07T12:59:27;100528.38;;;21.32;52.85
12868;BME280;33517;49.866;8.320;2023-08-07T13:02:19;100527.09;;;21.80;52.11
12868;BME280;33517;49.866;8.320;2023-08-07T13:05:11;100519.56;;;22.45;49.22
12868;BME280;33517;49.866;8.320;2023-08-07T13:08:03;100518.31;;;23.09;47.77
12868;BME280;33517;49.866;8.320;2023-08-07T13:10:56;100516.34;;;22.88;46.12
12868;BME280;33517;49.866;8.320;2023-08-07T13:13:48;100521.66;;;22.43;48.75
12868;BME280;33517;49.866;8.320;2023-08-07T13:16:40;100523.25;;;22.28;48.77
12868;BME280;33517;49.866;8.320;2023-08-07T13:19:32;100515.88;;;22.07;49.72
12868;BME280;33517;49.866;8.320;2023-08-07T13:22:24;100529.41;;;21.65;49.54
12868;BME280;33517;49.866;8.320;2023-08-07T13:25:15;100539.78;;;21.62;50.25
12868;BME280;33517;49.866;8.320;2023-08-07T13:28:09;100539.78;;;21.62;49.82
12868;BME280;33517;49.866;8.320;2023-08-07T13:31:00;100533.78;;;22.18;49.06
12868;BME280;33517;49.866;8.320;2023-08-07T13:33:52;100526.25;;;22.71;48.12
12868;BME280;33517;49.866;8.320;2023-08-07T13:36:44;100523.28;;;23.17;47.45
12868;BME280;33517;49.866;8.320;2023-08-07T13:39:36;100531.25;;;23.45;45.83
12868;BME280;33517;49.866;8.320;2023-08-07T13:42:28;100531.22;;;23.62;45.26
12868;BME280;33517;49.866;8.320;2023-08-07T13:45:21;100527.97;;;23.76;44.47
12868;BME280;33517;49.866;8.320;2023-08-07T13:48:13;100520.00;;;23.65;44.50
12868;BME280;33517;49.866;8.320;2023-08-07T13:51:05;100533.47;;;23.32;45.38
12868;BME280;33517;49.866;8.320;2023-08-07T13:53:58;100539.22;;;23.07;45.71
12868;BME280;33517;49.866;8.320;2023-08-07T13:56:50;100538.28;;;22.68;45.53
12868;BME280;33517;49.866;8.320;2023-08-07T13:59:42;100532.41;;;22.43;46.11
12868;BME280;33517;49.866;8.320;2023-08-07T14:02:35;100537.84;;;22.20;46.72
12868;BME280;33517;49.866;8.320;2023-08-07T14:05:27;100539.66;;;21.91;47.99
12868;BME280;33517;49.866;8.320;2023-08-07T14:08:19;100532.00;;;21.83;48.08
12868;BME280;33517;49.866;8.320;2023-08-07T14:11:11;100535.59;;;21.77;47.53
12868;BME280;33517;49.866;8.320;2023-08-07T14:14:04;100530.56;;;21.69;46.02
12868;BME280;33517;49.866;8.320;2023-08-07T14:16:56;100537.22;;;21.55;46.45
12868;BME280;33517;49.866;8.320;2023-08-07T14:19:52;100534.66;;;21.49;47.52
12868;BME280;33517;49.866;8.320;2023-08-07T14:22:44;100534.44;;;21.50;47.93
12868;BME280;33517;49.866;8.320;2023-08-07T14:25:36;100534.88;;;21.59;48.01
12868;BME280;33517;49.866;8.320;2023-08-07T14:28:27;100526.63;;;21.60;46.71
12868;BME280;33517;49.866;8.320;2023-08-07T14:31:19;100526.16;;;21.52;46.78
12868;BME280;33517;49.866;8.320;2023-08-07T14:34:11;100529.91;;;21.51;47.53
12868;BME280;33517;49.866;8.320;2023-08-07T14:37:05;100531.16;;;21.37;45.67
12868;BME280;33517;49.866;8.320;2023-08-07T14:39:56;100533.16;;;21.41;46.55
12868;BME280;33517;49.866;8.320;2023-08-07T14:42:48;100526.63;;;21.37;46.50
12868;BME280;33517;49.866;8.320;2023-08-07T14:45:40;100522.78;;;21.56;46.26
12868;BME280;33517;49.866;8.320;2023-08-07T14:48:32;100528.84;;;21.52;47.04
12868;BME280;33517;49.866;8.320;2023-08-07T14:51:24;100519.88;;;21.81;47.28
12868;BME280;33517;49.866;8.320;2023-08-07T14:54:17;100518.91;;;21.98;46.47
12868;BME280;33517;49.866;8.320;2023-08-07T14:57:09;100518.88;;;22.10;45.79
12868;BME280;33517;49.866;8.320;2023-08-07T15:00:01;100512.06;;;21.91;43.46
12868;BME280;33517;49.866;8.320;2023-08-07T15:02:53;100513.81;;;21.74;44.06